This is the latest recevied weather packets stored in our database for station/object KF8LO-1. If no packets are shown the sender has not sent any weather packets the latest 10 day(s).
| Time | Temp. | Humidity | Pressure | Rain* | Wind** | Luminosity | Snow |
|---|---|---|---|---|---|---|---|
| 1777584196 | 6.67° C | 77% | 0 hPa | 0 mm | - | - | - |
| 1777583896 | 7.22° C | 77% | 0 hPa | 0 mm | - | - | - |
| 1777583596 | 7.22° C | 77% | 0 hPa | 0 mm | - | - | - |
| 1777583297 | 7.22° C | 79% | 0 hPa | 0 mm | - | - | - |
| 1777582997 | 7.22° C | 79% | 0 hPa | 0 mm | - | - | - |
| 1777582697 | 7.22° C | 80% | 0 hPa | 0 mm | - | - | - |
| 1777582397 | 6.67° C | 78% | 0 hPa | 0.25 mm | - | - | - |
| 1777582096 | 6.67° C | 82% | 0 hPa | 0.25 mm | - | - | - |
| 1777581796 | 6.67° C | 79% | 0 hPa | 0.25 mm | - | - | - |
| 1777581497 | 6.67° C | 82% | 0 hPa | 0.25 mm | - | - | - |
| 1777581197 | 6.11° C | 85% | 0 hPa | 0.25 mm | - | - | - |
| 1777580896 | 6.11° C | 86% | 0 hPa | 0.25 mm | - | - | - |
| 1777580596 | 6.11° C | 86% | 0 hPa | 0.25 mm | - | - | - |
| 1777580296 | 6.11° C | 87% | 0 hPa | 0.25 mm | - | - | - |
| 1777579997 | 5.56° C | 87% | 0 hPa | 0.25 mm | - | - | - |
| 1777579697 | 5.56° C | 86% | 0 hPa | 0.25 mm | - | - | - |
| 1777579397 | 5.56° C | 88% | 0 hPa | 0.25 mm | - | - | - |
| 1777579097 | 5.56° C | 88% | 0 hPa | 0.25 mm | - | - | - |
| 1777578797 | 5.56° C | 88% | 0 hPa | 0 mm | - | - | - |
| 1777578497 | 6.11° C | 83% | 0 hPa | 0 mm | - | - | - |
| 1777578197 | 6.11° C | 81% | 0 hPa | 0 mm | - | - | - |
| 1777577897 | 6.67° C | 77% | 0 hPa | 0 mm | - | - | - |
| 1777577597 | 7.22° C | 72% | 0 hPa | 0 mm | - | - | - |
| 1777577297 | 7.22° C | 73% | 0 hPa | 0 mm | - | - | - |
| 1777576997 | 7.22° C | 74% | 0 hPa | 0 mm | - | - | - |
* Rain latest hour (hover to see other rain measurements)
** Current wind speed in m/s (hover to see current wind gust speed)